Time;durP1;ratioP1;P1;durP2;ratioP2;P2;SDS_P1;SDS_P2;PMS_P1;PMS_P2;Temp;Humidity;BMP_temperature;BMP_pressure;BME280_temperature;BME280_humidity;BME280_pressure;Samples;Min_cycle;Max_cycle;Signal;HPM_P1;HPM_P2
2023/03/22 00:01:15;;;;;;;0.40;0.40;;;10.40;99.90;;;;;;6216380;23;20024;-74
2023/03/22 00:03:41;;;;;;;0.40;0.40;;;10.40;99.90;;;;;;6216387;23;20009;-74
2023/03/22 00:06:08;;;;;;;0.47;0.47;;;10.30;99.90;;;;;;6216421;23;20036;-74
2023/03/22 00:08:33;;;;;;;0.50;0.50;;;10.40;99.90;;;;;;6214462;23;20406;-74
2023/03/22 00:10:59;;;;;;;0.60;0.60;;;10.30;99.90;;;;;;6216324;23;20016;-73
2023/03/22 00:13:25;;;;;;;0.40;0.40;;;10.30;99.90;;;;;;6240239;23;20436;-73
2023/03/22 00:15:50;;;;;;;0.40;0.40;;;10.40;99.90;;;;;;6216257;23;20009;-73
2023/03/22 00:18:17;;;;;;;0.50;0.50;;;10.30;99.90;;;;;;6215947;23;20438;-74
2023/03/22 00:20:54;;;;;;;0.50;0.50;;;10.30;99.90;;;;;;6214460;23;20016;-74
2023/03/22 00:23:21;;;;;;;0.40;0.40;;;10.30;99.90;;;;;;6214522;23;20020;-73
2023/03/22 00:25:47;;;;;;;0.40;0.40;;;10.30;99.90;;;;;;6214333;23;20063;-74
2023/03/22 00:28:14;;;;;;;0.40;0.40;;;10.30;99.90;;;;;;6214289;23;20354;-73
2023/03/22 00:30:41;;;;;;;0.50;0.50;;;10.20;99.90;;;;;;6216161;23;20083;-72
2023/03/22 00:33:06;;;;;;;0.50;0.50;;;10.20;99.90;;;;;;6239915;23;20098;-71
2023/03/22 00:35:32;;;;;;;0.40;0.40;;;10.30;99.90;;;;;;6216088;23;20379;-71
2023/03/22 00:38:05;;;;;;;0.30;0.30;;;10.30;99.90;;;;;;6215989;23;20508;-71
2023/03/22 00:40:32;;;;;;;0.50;0.50;;;10.30;99.90;;;;;;6216108;23;20334;-71
2023/03/22 00:42:58;;;;;;;0.50;0.50;;;10.30;99.90;;;;;;6216032;23;20021;-71
2023/03/22 00:45:23;;;;;;;0.32;0.32;;;10.20;99.90;;;;;;6216044;23;20062;-71
2023/03/22 00:47:49;;;;;;;0.40;0.40;;;10.20;99.90;;;;;;6215956;23;20055;-71
2023/03/22 00:50:15;;;;;;;0.30;0.30;;;10.20;99.90;;;;;;6216105;23;20518;-71
2023/03/22 00:52:40;;;;;;;0.40;0.40;;;10.30;99.90;;;;;;6215963;23;20012;-71
2023/03/22 00:55:06;;;;;;;0.35;0.35;;;10.30;99.90;;;;;;6215633;23;20512;-71
2023/03/22 00:57:32;;;;;;;0.38;0.38;;;10.30;99.90;;;;;;6216220;23;20078;-71
2023/03/22 00:59:58;;;;;;;0.30;0.30;;;10.20;99.90;;;;;;6215587;23;20338;-71
2023/03/22 01:02:28;;;;;;;0.30;0.30;;;10.30;99.90;;;;;;6216619;23;20016;-71
2023/03/22 01:04:54;;;;;;;0.30;0.30;;;10.20;99.90;;;;;;6216030;23;20009;-71
2023/03/22 01:07:22;;;;;;;0.30;0.30;;;10.20;99.90;;;;;;6215948;23;20036;-71
2023/03/22 01:09:52;;;;;;;0.40;0.40;;;10.20;99.90;;;;;;6214115;23;20067;-71
2023/03/22 01:12:18;;;;;;;0.40;0.40;;;10.20;99.90;;;;;;6216007;23;20013;-71
2023/03/22 01:14:45;;;;;;;0.30;0.30;;;10.10;99.90;;;;;;6215859;23;20004;-71
2023/03/22 01:17:10;;;;;;;0.40;0.40;;;10.10;99.90;;;;;;6213853;23;20505;-71
2023/03/22 01:19:37;;;;;;;0.40;0.40;;;10.00;99.90;;;;;;6213810;23;20052;-71
2023/03/22 01:22:05;;;;;;;0.40;0.40;;;10.10;99.90;;;;;;6215954;23;20322;-71
2023/03/22 01:24:30;;;;;;;0.30;0.30;;;10.10;99.90;;;;;;6215773;23;20008;-71
2023/03/22 01:26:56;;;;;;;0.30;0.30;;;10.10;99.90;;;;;;6213922;23;20079;-71
2023/03/22 01:29:22;;;;;;;0.30;0.30;;;10.10;99.90;;;;;;6216104;23;20441;-71
2023/03/22 01:31:48;;;;;;;0.40;0.40;;;10.10;99.90;;;;;;6215841;23;20027;-71
2023/03/22 01:34:14;;;;;;;0.30;0.30;;;10.00;99.90;;;;;;6213952;23;20020;-71
2023/03/22 01:36:40;;;;;;;0.40;0.40;;;10.10;99.90;;;;;;6188914;23;20039;-71
2023/03/22 01:39:05;;;;;;;0.40;0.40;;;10.00;99.90;;;;;;6215290;23;20039;-71
2023/03/22 01:41:34;;;;;;;0.30;0.30;;;10.10;99.90;;;;;;6215790;23;20345;-71
2023/03/22 01:44:18;;;;;;;0.30;0.30;;;10.00;99.90;;;;;;6215770;23;20024;-71
2023/03/22 01:46:46;;;;;;;0.45;0.45;;;10.10;99.90;;;;;;6217667;23;20087;-71
2023/03/22 01:49:26;;;;;;;0.40;0.40;;;10.00;99.90;;;;;;6217549;23;20016;-71
2023/03/22 01:51:53;;;;;;;;;;;10.10;99.90;;;;;;6218039;23;20019;-71
2023/03/22 01:54:39;;;;;;;0.20;0.20;;;10.00;99.90;;;;;;6217284;23;19927;-71
2023/03/22 01:57:05;;;;;;;0.40;0.40;;;10.00;99.90;;;;;;6217491;23;20337;-71
2023/03/22 01:59:31;;;;;;;0.32;0.32;;;10.00;99.90;;;;;;6217673;23;20013;-71
2023/03/22 02:01:59;;;;;;;0.40;0.40;;;10.00;99.90;;;;;;6215457;23;20020;-71
2023/03/22 02:04:32;;;;;;;0.40;0.40;;;10.00;99.90;;;;;;6217449;23;20079;-71
2023/03/22 02:07:08;;;;;;;0.30;0.30;;;10.00;99.90;;;;;;6215472;23;20070;-71
2023/03/22 02:09:41;;;;;;;0.38;0.38;;;10.00;99.90;;;;;;6217392;23;20143;-71
2023/03/22 02:12:21;;;;;;;0.40;0.40;;;9.90;99.90;;;;;;6215860;23;20009;-71
2023/03/22 02:15:08;;;;;;;0.40;0.40;;;10.00;99.90;;;;;;6241517;23;20017;-71
2023/03/22 02:17:50;;;;;;;0.30;0.30;;;10.00;99.90;;;;;;6217173;23;20012;-72
2023/03/22 02:20:38;;;;;;;0.30;0.30;;;10.00;99.90;;;;;;6217280;23;20017;-71
2023/03/22 02:23:33;;;;;;;0.40;0.40;;;10.00;99.90;;;;;;6215276;23;20016;-71
2023/03/22 02:26:14;;;;;;;0.30;0.30;;;10.00;99.90;;;;;;6215347;23;20087;-71
2023/03/22 02:28:49;;;;;;;0.30;0.30;;;9.90;99.90;;;;;;6215248;23;20012;-71
2023/03/22 02:31:36;;;;;;;0.30;0.30;;;10.00;99.90;;;;;;6217254;23;20013;-71
2023/03/22 02:34:47;;;;;;;0.40;0.40;;;10.00;99.90;;;;;;6217118;23;20017;-71
2023/03/22 02:37:36;;;;;;;0.40;0.40;;;10.00;99.90;;;;;;6217266;23;20089;-71
2023/03/22 02:40:08;;;;;;;0.38;0.38;;;10.00;99.90;;;;;;6217071;23;20094;-71
2023/03/22 02:42:50;;;;;;;0.50;0.50;;;10.00;99.90;;;;;;6217075;23;20015;-71
2023/03/22 02:45:21;;;;;;;0.50;0.50;;;10.00;99.90;;;;;;6217020;23;20066;-72
2023/03/22 02:47:59;;;;;;;0.40;0.40;;;10.10;99.90;;;;;;6215081;23;20020;-72
2023/03/22 02:50:42;;;;;;;0.45;0.45;;;10.00;99.90;;;;;;6239993;23;20044;-71
2023/03/22 02:53:33;;;;;;;0.40;0.40;;;10.00;99.90;;;;;;6216968;23;20024;-71
2023/03/22 02:56:20;;;;;;;0.40;0.40;;;10.00;99.90;;;;;;6214729;23;20468;-71
2023/03/22 02:58:52;;;;;;;0.40;0.40;;;9.90;99.90;;;;;;6217397;23;20013;-71
2023/03/22 03:01:24;;;;;;;0.30;0.30;;;9.90;99.90;;;;;;6216844;23;20019;-71
2023/03/22 03:03:55;;;;;;;0.40;0.40;;;10.00;99.90;;;;;;6216819;23;20015;-71
2023/03/22 03:06:24;;;;;;;0.30;0.30;;;10.00;99.90;;;;;;6214946;23;20087;-71
2023/03/22 03:08:52;;;;;;;0.40;0.40;;;9.90;99.90;;;;;;6216849;23;20023;-71
2023/03/22 03:11:19;;;;;;;0.38;0.38;;;9.90;99.90;;;;;;6214950;23;20052;-71
2023/03/22 03:13:49;;;;;;;0.50;0.50;;;10.00;99.90;;;;;;6215017;23;20073;-71
2023/03/22 03:16:22;;;;;;;0.40;0.40;;;9.90;99.90;;;;;;6216760;23;20062;-71
2023/03/22 03:19:09;;;;;;;0.40;0.40;;;10.00;99.90;;;;;;6215086;23;20017;-71
2023/03/22 03:22:02;;;;;;;0.40;0.40;;;9.90;99.90;;;;;;6216661;23;20008;-71
2023/03/22 03:24:30;;;;;;;0.35;0.35;;;9.90;99.90;;;;;;6190020;23;20020;-71
2023/03/22 03:27:08;;;;;;;0.40;0.40;;;9.90;99.90;;;;;;6216342;23;20075;-71
2023/03/22 03:29:44;;;;;;;0.40;0.40;;;9.90;99.90;;;;;;6215107;23;20399;-71
2023/03/22 03:32:25;;;;;;;0.30;0.30;;;9.90;99.90;;;;;;6216577;23;20087;-71
2023/03/22 03:35:04;;;;;;;0.30;0.30;;;9.90;99.90;;;;;;6215064;23;20024;-71
2023/03/22 03:37:38;;;;;;;0.30;0.30;;;9.80;99.90;;;;;;6214886;23;20017;-71
2023/03/22 03:40:35;;;;;;;0.22;0.22;;;9.90;99.90;;;;;;6216461;23;20013;-71
2023/03/22 03:43:05;;;;;;;0.40;0.40;;;9.90;99.90;;;;;;6214808;23;20055;-71
2023/03/22 03:45:32;;;;;;;0.50;0.50;;;9.90;99.90;;;;;;6214994;23;20019;-71
2023/03/22 03:48:01;;;;;;;0.38;0.38;;;9.90;99.90;;;;;;6214499;23;20504;-71
2023/03/22 03:50:27;;;;;;;0.30;0.30;;;10.00;99.90;;;;;;6216359;23;20019;-71
2023/03/22 03:52:53;;;;;;;0.40;0.40;;;9.90;99.90;;;;;;6214626;23;20023;-71
2023/03/22 03:55:20;;;;;;;0.40;0.40;;;9.90;99.90;;;;;;6215975;23;20430;-71
2023/03/22 03:57:46;;;;;;;0.40;0.40;;;9.90;99.90;;;;;;6216390;23;20048;-71
2023/03/22 04:00:15;;;;;;;0.50;0.50;;;10.00;99.90;;;;;;6214366;23;20341;-71
2023/03/22 04:02:42;;;;;;;0.40;0.40;;;10.00;99.90;;;;;;6189331;23;20048;-71
2023/03/22 04:05:08;;;;;;;0.30;0.30;;;10.00;99.90;;;;;;6216330;23;20009;-71
2023/03/22 04:07:34;;;;;;;0.35;0.35;;;10.00;99.90;;;;;;6215828;23;20023;-71
2023/03/22 04:09:59;;;;;;;0.22;0.22;;;9.90;99.90;;;;;;6214647;23;20095;-71
2023/03/22 04:12:25;;;;;;;0.30;0.30;;;9.90;99.90;;;;;;6214416;23;20020;-71
2023/03/22 04:14:51;;;;;;;0.40;0.40;;;10.00;99.90;;;;;;6216176;23;20024;-71
2023/03/22 04:17:16;;;;;;;0.30;0.30;;;9.90;99.90;;;;;;6214118;23;20016;-71
2023/03/22 04:19:44;;;;;;;0.30;0.30;;;10.00;99.90;;;;;;6214258;23;20334;-71
2023/03/22 04:22:13;;;;;;;0.40;0.40;;;9.90;99.90;;;;;;6189152;23;20088;-71
2023/03/22 04:24:40;;;;;;;0.38;0.38;;;10.00;99.90;;;;;;6214638;23;20009;-71
2023/03/22 04:27:07;;;;;;;0.40;0.40;;;10.10;99.90;;;;;;6216194;23;20009;-71
2023/03/22 04:29:35;;;;;;;0.40;0.40;;;10.10;99.90;;;;;;6189376;23;20013;-71
2023/03/22 04:32:04;;;;;;;0.40;0.40;;;10.10;99.90;;;;;;6214205;23;20012;-71
2023/03/22 04:34:30;;;;;;;0.40;0.40;;;10.10;99.90;;;;;;6214251;23;20338;-71
2023/03/22 04:36:56;;;;;;;0.43;0.43;;;10.10;99.90;;;;;;6189248;23;20091;-71
2023/03/22 04:39:22;;;;;;;0.40;0.40;;;10.10;99.90;;;;;;6214214;23;20020;-71
2023/03/22 04:41:48;;;;;;;0.40;0.40;;;10.10;99.90;;;;;;6216101;23;20058;-71
2023/03/22 04:44:14;;;;;;;0.50;0.50;;;10.20;99.90;;;;;;6216221;23;20044;-71
2023/03/22 04:46:41;;;;;;;0.40;0.40;;;10.20;99.90;;;;;;6216112;23;20510;-71
2023/03/22 04:49:07;;;;;;;0.70;0.70;;;10.20;99.90;;;;;;6216044;23;20020;-71
2023/03/22 04:51:32;;;;;;;0.70;0.70;;;10.20;99.90;;;;;;6214223;23;20023;-71
2023/03/22 04:53:59;;;;;;;0.88;0.80;;;10.20;99.90;;;;;;6215867;23;20017;-71
2023/03/22 04:56:24;;;;;;;0.85;0.85;;;10.20;99.90;;;;;;6214144;23;20155;-71
2023/03/22 04:58:50;;;;;;;1.40;0.90;;;10.30;99.90;;;;;;6189255;23;20059;-72
2023/03/22 05:01:16;;;;;;;1.10;1.00;;;10.30;99.90;;;;;;6215971;23;20008;-72
2023/03/22 05:03:44;;;;;;;1.00;1.00;;;10.30;99.90;;;;;;6216068;23;20044;-72
2023/03/22 05:06:10;;;;;;;1.27;1.17;;;10.30;99.90;;;;;;6214456;23;20009;-72
2023/03/22 05:08:36;;;;;;;0.95;0.95;;;10.30;99.90;;;;;;6189090;23;20055;-72
2023/03/22 05:11:13;;;;;;;1.55;1.45;;;10.30;99.90;;;;;;6214143;23;20016;-71
2023/03/22 05:13:40;;;;;;;1.20;1.20;;;10.20;99.90;;;;;;6217310;23;20040;-72
2023/03/22 05:16:06;;;;;;;1.10;1.10;;;10.30;99.90;;;;;;6217886;23;20031;-72
2023/03/22 05:18:32;;;;;;;1.40;1.20;;;10.20;99.90;;;;;;6215933;23;20013;-71
2023/03/22 05:20:59;;;;;;;1.05;1.05;;;10.20;99.90;;;;;;6215921;23;20020;-71
2023/03/22 05:23:26;;;;;;;1.25;1.20;;;10.30;99.90;;;;;;6217883;23;20096;-71
2023/03/22 05:25:53;;;;;;;1.30;1.20;;;10.30;99.90;;;;;;6217912;23;20004;-71
2023/03/22 05:28:20;;;;;;;1.30;1.20;;;10.20;99.90;;;;;;6216069;23;20091;-71
2023/03/22 05:30:46;;;;;;;1.45;1.35;;;10.20;99.90;;;;;;6217383;23;20441;-71
2023/03/22 05:33:13;;;;;;;1.40;1.30;;;10.30;99.90;;;;;;6217941;23;20012;-72
2023/03/22 05:35:40;;;;;;;1.50;1.40;;;10.40;99.90;;;;;;6217660;23;20342;-71
2023/03/22 05:38:07;;;;;;;1.40;1.30;;;10.30;99.90;;;;;;6217525;23;20015;-72
2023/03/22 05:40:32;;;;;;;1.20;1.10;;;10.30;99.90;;;;;;6215683;23;20385;-72
2023/03/22 05:42:58;;;;;;;1.20;1.10;;;10.30;99.90;;;;;;6217749;23;20024;-71
2023/03/22 05:45:25;;;;;;;1.30;1.20;;;10.20;99.90;;;;;;6217606;23;20009;-71
2023/03/22 05:47:52;;;;;;;1.17;1.17;;;10.30;99.90;;;;;;6215716;23;20066;-72
2023/03/22 05:50:20;;;;;;;1.27;1.20;;;10.30;99.90;;;;;;6215801;23;20012;-72
2023/03/22 05:52:47;;;;;;;1.20;1.10;;;10.30;99.90;;;;;;6215711;23;20019;-71
2023/03/22 05:55:13;;;;;;;1.20;1.10;;;10.30;99.90;;;;;;6215354;23;20013;-71
2023/03/22 05:57:43;;;;;;;0.90;0.90;;;10.30;99.90;;;;;;6217499;23;20017;-71
2023/03/22 06:00:13;;;;;;;1.10;1.10;;;10.20;99.90;;;;;;6217489;23;20373;-71
2023/03/22 06:02:44;;;;;;;1.33;1.23;;;10.30;99.90;;;;;;6217524;23;20013;-72
2023/03/22 06:05:11;;;;;;;1.23;1.13;;;10.30;99.90;;;;;;6217478;23;20084;-72
2023/03/22 06:07:37;;;;;;;1.25;1.20;;;10.20;99.90;;;;;;6215532;23;20095;-71
2023/03/22 06:10:05;;;;;;;1.38;1.27;;;10.30;99.90;;;;;;6217378;23;20013;-71
2023/03/22 06:12:31;;;;;;;1.10;1.00;;;10.20;99.90;;;;;;6215533;23;20039;-71
2023/03/22 06:14:57;;;;;;;1.20;1.10;;;10.30;99.90;;;;;;6216560;23;20009;-71
2023/03/22 06:17:23;;;;;;;1.05;1.05;;;10.20;99.90;;;;;;6215444;23;20088;-67
2023/03/22 06:19:49;;;;;;;1.00;1.00;;;10.30;99.90;;;;;;6217303;23;20477;-66
2023/03/22 06:22:15;;;;;;;0.95;0.95;;;10.20;99.90;;;;;;6217340;23;20008;-75
2023/03/22 06:24:41;;;;;;;1.15;1.10;;;10.20;99.90;;;;;;6214718;23;20020;-72
2023/03/22 06:27:08;;;;;;;1.30;1.20;;;10.10;99.90;;;;;;6216786;23;20005;-72
2023/03/22 06:29:34;;;;;;;1.10;1.02;;;10.20;99.90;;;;;;6190310;23;20017;-72
2023/03/22 06:32:00;;;;;;;1.10;1.00;;;10.20;99.90;;;;;;6217253;23;20071;-72
2023/03/22 06:34:26;;;;;;;1.20;1.10;;;10.20;99.90;;;;;;6217331;23;20019;-72
2023/03/22 06:36:52;;;;;;;1.02;0.95;;;10.20;99.90;;;;;;6215351;23;20016;-71
2023/03/22 06:39:21;;;;;;;0.95;0.90;;;10.30;99.90;;;;;;6215109;23;20025;-72
2023/03/22 06:41:47;;;;;;;1.00;1.00;;;10.30;99.90;;;;;;6215520;23;20098;-71
2023/03/22 06:44:13;;;;;;;0.95;0.90;;;10.30;99.90;;;;;;6217261;23;20012;-72
2023/03/22 06:46:39;;;;;;;0.90;0.90;;;10.40;99.90;;;;;;6216682;23;20020;-72
2023/03/22 06:49:05;;;;;;;1.02;1.00;;;10.30;99.90;;;;;;6217078;23;20088;-71
2023/03/22 06:51:31;;;;;;;0.80;0.80;;;10.30;99.90;;;;;;6216963;23;20043;-72
2023/03/22 06:53:57;;;;;;;0.80;0.80;;;10.60;99.90;;;;;;6217805;23;20363;-72
2023/03/22 06:56:22;;;;;;;0.90;0.90;;;10.50;99.90;;;;;;6215161;23;20454;-75
2023/03/22 06:58:50;;;;;;;0.80;0.80;;;10.60;99.90;;;;;;6217064;23;20334;-70
2023/03/22 07:01:18;;;;;;;0.80;0.80;;;10.60;99.90;;;;;;6217026;23;20040;-83
2023/03/22 07:03:44;;;;;;;0.80;0.80;;;10.60;99.90;;;;;;6215270;23;20095;-76
2023/03/22 07:06:10;;;;;;;0.90;0.90;;;10.60;99.90;;;;;;6217284;23;20039;-87
2023/03/22 07:08:36;;;;;;;0.80;0.80;;;10.80;99.90;;;;;;6216015;23;20021;-75
2023/03/22 07:11:03;;;;;;;0.80;0.80;;;10.70;99.90;;;;;;6191045;23;20031;-89
2023/03/22 07:13:29;;;;;;;1.10;0.90;;;10.70;99.90;;;;;;6218039;23;20105;-88
2023/03/22 07:15:56;;;;;;;0.80;0.80;;;10.80;99.90;;;;;;6215561;23;20016;-81
2023/03/22 07:18:22;;;;;;;0.70;0.70;;;10.80;99.90;;;;;;6216226;23;20135;-69
2023/03/22 07:20:48;;;;;;;0.88;0.88;;;10.90;99.90;;;;;;6215038;23;20024;-76
2023/03/22 07:23:15;;;;;;;0.70;0.70;;;10.90;99.90;;;;;;6215065;23;20327;-77
2023/03/22 07:25:41;;;;;;;0.70;0.70;;;10.80;99.90;;;;;;6216483;23;20009;-81
2023/03/22 07:28:09;;;;;;;0.73;0.73;;;10.90;99.90;;;;;;6216825;23;20071;-78
2023/03/22 07:30:36;;;;;;;0.70;0.70;;;10.90;99.90;;;;;;6215030;23;20021;-79
2023/03/22 07:33:03;;;;;;;0.70;0.70;;;10.80;99.90;;;;;;6216674;23;20329;-75
2023/03/22 07:35:29;;;;;;;0.70;0.70;;;11.00;99.90;;;;;;6214616;23;20349;-73
2023/03/22 07:37:54;;;;;;;0.68;0.68;;;10.90;99.90;;;;;;6214650;23;20016;-73
2023/03/22 07:40:20;;;;;;;0.70;0.70;;;10.90;99.90;;;;;;6214790;23;20004;-72
2023/03/22 07:42:50;;;;;;;0.63;0.63;;;11.00;99.90;;;;;;6216619;23;20013;-72
2023/03/22 07:45:17;;;;;;;0.60;0.60;;;10.90;99.90;;;;;;6214782;23;20014;-72
2023/03/22 07:47:44;;;;;;;0.80;0.80;;;11.00;99.90;;;;;;6216122;23;20106;-73
2023/03/22 07:50:12;;;;;;;0.70;0.70;;;11.00;99.90;;;;;;6216094;23;20074;-72
2023/03/22 07:52:40;;;;;;;0.68;0.68;;;11.00;99.90;;;;;;6214460;23;20070;-72
2023/03/22 07:55:07;;;;;;;0.70;0.70;;;11.10;99.90;;;;;;6214741;23;20019;-72
2023/03/22 07:57:35;;;;;;;0.70;0.70;;;11.10;99.90;;;;;;6189407;23;20043;-73
2023/03/22 08:00:00;;;;;;;0.70;0.70;;;11.10;99.90;;;;;;6215058;23;20009;-73
2023/03/22 08:02:26;;;;;;;0.60;0.60;;;11.20;99.90;;;;;;6216709;23;20318;-72
2023/03/22 08:04:53;;;;;;;0.60;0.60;;;11.10;99.90;;;;;;6214463;23;20044;-72
2023/03/22 08:07:19;;;;;;;0.40;0.40;;;11.20;99.90;;;;;;6214428;23;20015;-73
2023/03/22 08:09:45;;;;;;;0.60;0.60;;;11.10;99.90;;;;;;6214917;23;20012;-73
2023/03/22 08:12:11;;;;;;;0.50;0.50;;;11.00;99.90;;;;;;6214315;23;20444;-71
2023/03/22 08:14:37;;;;;;;0.30;0.30;;;11.10;99.90;;;;;;6214577;23;20078;-71
2023/03/22 08:17:06;;;;;;;0.60;0.60;;;11.10;99.90;;;;;;6214401;23;20338;-71
2023/03/22 08:19:32;;;;;;;0.60;0.60;;;11.10;99.90;;;;;;6214211;23;20093;-72
2023/03/22 08:21:58;;;;;;;0.47;0.47;;;11.10;99.90;;;;;;6214662;23;20013;-71
2023/03/22 08:24:25;;;;;;;0.45;0.45;;;11.00;99.90;;;;;;6216198;23;20377;-71
2023/03/22 08:26:51;;;;;;;0.50;0.50;;;11.10;99.90;;;;;;6214358;23;20013;-71
2023/03/22 08:29:17;;;;;;;0.50;0.50;;;11.10;99.90;;;;;;6214478;23;20017;-71
2023/03/22 08:31:43;;;;;;;0.50;0.50;;;11.10;99.90;;;;;;6214348;23;20024;-72
2023/03/22 08:34:09;;;;;;;0.50;0.50;;;11.10;99.90;;;;;;6189302;23;20017;-71
2023/03/22 08:36:36;;;;;;;0.50;0.50;;;11.10;99.90;;;;;;6216202;23;20016;-72
2023/03/22 08:39:03;;;;;;;0.40;0.40;;;11.20;99.90;;;;;;6214200;23;20024;-71
2023/03/22 08:41:28;;;;;;;0.50;0.50;;;11.20;99.90;;;;;;6214276;23;20027;-71
2023/03/22 08:43:55;;;;;;;0.50;0.50;;;11.20;99.90;;;;;;6214421;23;20394;-71
2023/03/22 08:46:20;;;;;;;0.40;0.40;;;11.20;99.90;;;;;;6216485;23;20079;-71
2023/03/22 08:48:49;;;;;;;0.45;0.45;;;11.20;99.90;;;;;;6217426;23;20094;-71
2023/03/22 08:51:20;;;;;;;0.40;0.40;;;11.20;99.90;;;;;;6216277;23;20013;-71
2023/03/22 08:53:49;;;;;;;0.43;0.43;;;11.20;99.90;;;;;;6216344;23;20448;-71
2023/03/22 08:56:18;;;;;;;0.40;0.40;;;11.20;99.90;;;;;;6216070;23;20020;-71
2023/03/22 08:58:46;;;;;;;0.40;0.40;;;11.20;99.90;;;;;;6216371;23;20464;-71
2023/03/22 09:01:13;;;;;;;0.40;0.40;;;11.30;99.90;;;;;;6241977;23;20017;-71
2023/03/22 09:03:39;;;;;;;0.50;0.50;;;11.30;99.90;;;;;;6216105;23;20023;-71
2023/03/22 09:06:05;;;;;;;0.40;0.40;;;11.30;99.90;;;;;;6218099;23;20019;-71
2023/03/22 09:08:32;;;;;;;0.50;0.50;;;11.50;99.90;;;;;;6218293;23;20038;-71
2023/03/22 09:10:57;;;;;;;0.40;0.40;;;11.60;99.90;;;;;;6216129;23;20024;-71
2023/03/22 09:13:23;;;;;;;0.40;0.40;;;11.60;99.90;;;;;;6217706;23;20008;-71
2023/03/22 09:15:50;;;;;;;0.50;0.50;;;11.60;99.90;;;;;;6218116;23;20008;-71
2023/03/22 09:18:16;;;;;;;0.45;0.45;;;11.80;99.90;;;;;;6217621;23;20338;-71
2023/03/22 09:20:43;;;;;;;0.45;0.45;;;11.70;99.90;;;;;;6216066;23;20460;-71
2023/03/22 09:23:09;;;;;;;0.40;0.40;;;11.70;99.90;;;;;;6241669;23;20013;-71
2023/03/22 09:25:35;;;;;;;0.45;0.45;;;11.70;99.90;;;;;;6216013;23;20036;-71
2023/03/22 09:28:01;;;;;;;0.47;0.47;;;11.80;99.90;;;;;;6217915;23;20080;-70
2023/03/22 09:30:27;;;;;;;0.50;0.50;;;11.90;99.90;;;;;;6217494;23;20409;-73
2023/03/22 09:32:53;;;;;;;0.50;0.50;;;11.80;99.90;;;;;;6215928;23;20048;-71
2023/03/22 09:35:18;;;;;;;0.43;0.43;;;11.90;99.90;;;;;;6217747;23;20082;-72
2023/03/22 09:37:44;;;;;;;0.50;0.50;;;11.90;99.90;;;;;;6241644;23;20442;-72
2023/03/22 09:40:11;;;;;;;0.50;0.50;;;11.80;99.90;;;;;;6217661;23;20009;-72
2023/03/22 09:42:53;;;;;;;0.47;0.47;;;11.80;99.90;;;;;;6217336;23;20009;-72
2023/03/22 09:45:36;;;;;;;0.50;0.50;;;11.80;99.90;;;;;;6217913;23;20013;-72
2023/03/22 09:48:05;;;;;;;0.43;0.43;;;11.90;99.90;;;;;;6215799;23;20519;-73
2023/03/22 09:50:32;;;;;;;0.40;0.40;;;12.00;99.90;;;;;;6190752;23;20088;-72
2023/03/22 09:52:59;;;;;;;0.40;0.40;;;12.00;99.90;;;;;;6218261;23;20322;-72
2023/03/22 09:55:39;;;;;;;0.50;0.50;;;12.00;99.90;;;;;;6190361;23;20075;-73
2023/03/22 09:58:20;;;;;;;0.40;0.40;;;11.90;99.90;;;;;;6215777;23;20047;-72
2023/03/22 10:01:22;;;;;;;0.30;0.30;;;11.90;99.90;;;;;;6215879;23;20036;-72
2023/03/22 10:04:25;;;;;;;0.43;0.43;;;11.90;99.90;;;;;;6215734;23;20009;-72
2023/03/22 10:07:03;;;;;;;0.40;0.40;;;11.90;99.90;;;;;;6217598;23;20024;-73
2023/03/22 10:09:53;;;;;;;0.32;0.32;;;11.80;99.90;;;;;;6215564;23;20500;-72
2023/03/22 10:13:07;;;;;;;0.40;0.40;;;11.80;99.90;;;;;;6215572;23;20019;-72
2023/03/22 10:15:37;;;;;;;0.40;0.40;;;11.70;99.90;;;;;;6204920;23;20059;-72
2023/03/22 10:18:08;;;;;;;0.35;0.35;;;11.70;99.90;;;;;;6217013;23;20012;-71
2023/03/22 10:20:37;;;;;;;0.30;0.30;;;11.60;99.90;;;;;;6190381;23;20315;-71
2023/03/22 10:23:06;;;;;;;0.30;0.30;;;11.60;99.90;;;;;;6217254;23;20020;-71
2023/03/22 10:25:38;;;;;;;0.45;0.45;;;11.60;99.90;;;;;;6215352;23;20009;-71
2023/03/22 10:28:23;;;;;;;0.30;0.30;;;11.60;99.90;;;;;;6217208;23;20009;-71
2023/03/22 10:30:55;;;;;;;0.50;0.50;;;11.60;99.90;;;;;;6215434;23;20087;-74
2023/03/22 10:33:38;;;;;;;0.32;0.32;;;11.60;99.90;;;;;;6190208;23;20055;-71
2023/03/22 10:36:08;;;;;;;0.40;0.40;;;11.50;99.90;;;;;;6216235;23;20013;-71
2023/03/22 10:38:44;;;;;;;;;;;11.50;99.90;;;;;;6215715;23;20017;-71
2023/03/22 10:41:15;;;;;;;0.40;0.40;;;11.50;99.90;;;;;;6217264;23;19942;-70
2023/03/22 10:43:41;;;;;;;;;;;11.40;99.90;;;;;;6190752;23;20009;-70
2023/03/22 10:46:18;;;;;;;0.40;0.40;;;11.40;99.90;;;;;;6217333;23;19951;-70
2023/03/22 10:48:47;;;;;;;0.50;0.50;;;11.40;99.90;;;;;;6215366;23;20079;-72
2023/03/22 10:51:31;;;;;;;0.50;0.50;;;11.30;99.90;;;;;;6215231;23;20453;-71
2023/03/22 10:54:00;;;;;;;0.47;0.47;;;11.30;99.90;;;;;;6217940;23;20371;-70
2023/03/22 10:56:25;;;;;;;0.45;0.45;;;11.20;99.90;;;;;;6215117;23;20020;-71
2023/03/22 10:58:53;;;;;;;0.40;0.40;;;11.20;99.90;;;;;;6214999;23;20008;-71
2023/03/22 11:01:36;;;;;;;0.40;0.40;;;11.20;99.90;;;;;;6215171;23;20021;-71
2023/03/22 11:04:07;;;;;;;0.40;0.40;;;11.10;99.90;;;;;;6215017;23;20047;-71
2023/03/22 11:06:37;;;;;;;0.40;0.40;;;11.20;99.90;;;;;;6215021;23;20087;-71
2023/03/22 11:09:09;;;;;;;0.40;0.40;;;11.10;99.90;;;;;;6214948;23;20020;-71
2023/03/22 11:11:48;;;;;;;0.40;0.40;;;11.10;99.90;;;;;;6239920;23;20453;-71
2023/03/22 11:14:19;;;;;;;0.40;0.40;;;11.10;99.90;;;;;;6216556;23;20013;-71
2023/03/22 11:16:56;;;;;;;0.50;0.50;;;11.10;99.90;;;;;;6216760;23;20020;-70
2023/03/22 11:19:35;;;;;;;0.50;0.50;;;11.10;99.90;;;;;;6216717;23;20015;-71
2023/03/22 11:22:05;;;;;;;0.50;0.50;;;11.20;99.90;;;;;;6216550;23;20028;-71
2023/03/22 11:24:33;;;;;;;0.43;0.43;;;11.20;99.90;;;;;;6216388;23;20430;-70
2023/03/22 11:27:18;;;;;;;0.50;0.50;;;11.20;99.90;;;;;;6216319;23;20569;-71
2023/03/22 11:29:50;;;;;;;0.40;0.40;;;11.10;99.90;;;;;;6215818;23;20017;-71
2023/03/22 11:32:35;;;;;;;0.30;0.30;;;11.10;99.90;;;;;;6216356;23;20449;-69
2023/03/22 11:35:04;;;;;;;0.30;0.30;;;10.90;99.90;;;;;;6217326;23;20062;-69
2023/03/22 11:37:30;;;;;;;0.40;0.40;;;11.00;99.90;;;;;;6216547;23;20016;-69
2023/03/22 11:40:03;;;;;;;0.40;0.40;;;11.00;99.90;;;;;;6216777;23;20338;-69
2023/03/22 11:42:32;;;;;;;0.40;0.40;;;11.00;99.90;;;;;;6216627;23;20076;-70
2023/03/22 11:44:58;;;;;;;0.47;0.47;;;11.10;99.90;;;;;;6214867;23;20016;-70
2023/03/22 11:47:27;;;;;;;0.50;0.50;;;11.10;99.90;;;;;;6216534;23;20004;-69
2023/03/22 11:49:55;;;;;;;0.32;0.32;;;11.10;99.90;;;;;;6216487;23;20330;-70
2023/03/22 11:52:25;;;;;;;0.40;0.40;;;11.20;99.90;;;;;;6216394;23;20079;-70
2023/03/22 11:54:53;;;;;;;0.40;0.40;;;11.20;99.90;;;;;;6214401;23;20503;-70
2023/03/22 11:57:28;;;;;;;0.40;0.40;;;11.30;99.90;;;;;;6216392;23;20012;-70
2023/03/22 12:00:06;;;;;;;0.40;0.40;;;11.20;99.90;;;;;;6214454;23;20020;-69
2023/03/22 12:02:53;;;;;;;0.32;0.32;;;11.30;99.90;;;;;;6216425;23;20013;-70
2023/03/22 12:05:35;;;;;;;0.40;0.40;;;11.30;99.90;;;;;;6216432;23;20063;-70
2023/03/22 12:08:25;;;;;;;0.40;0.40;;;11.30;99.90;;;;;;6214524;23;20016;-70
2023/03/22 12:11:00;;;;;;;0.40;0.40;;;11.30;99.90;;;;;;6216850;23;20325;-70
2023/03/22 12:13:34;;;;;;;0.40;0.40;;;11.30;99.90;;;;;;6214559;23;20017;-71
2023/03/22 12:16:03;;;;;;;0.40;0.40;;;11.30;99.90;;;;;;6216565;23;20334;-70
2023/03/22 12:18:50;;;;;;;0.32;0.32;;;11.30;99.90;;;;;;6216572;23;20028;-70
2023/03/22 12:21:15;;;;;;;0.40;0.40;;;11.20;99.90;;;;;;6216445;23;20086;-70
2023/03/22 12:23:41;;;;;;;0.32;0.32;;;11.20;99.90;;;;;;6216388;23;20017;-69
2023/03/22 12:26:16;;;;;;;0.35;0.35;;;11.20;99.90;;;;;;6214423;23;20105;-70
2023/03/22 12:28:44;;;;;;;0.47;0.47;;;11.20;99.90;;;;;;6214467;23;20082;-70
2023/03/22 12:31:20;;;;;;;0.40;0.40;;;11.10;99.90;;;;;;6214518;23;20013;-71
2023/03/22 12:33:55;;;;;;;0.30;0.30;;;11.10;99.90;;;;;;6214463;23;20017;-70
2023/03/22 12:36:36;;;;;;;0.35;0.35;;;11.20;99.90;;;;;;6214291;23;20012;-70
2023/03/22 12:39:05;;;;;;;0.40;0.40;;;11.10;99.90;;;;;;6189223;23;20091;-70
2023/03/22 12:41:42;;;;;;;0.40;0.40;;;11.10;99.90;;;;;;6216208;23;20015;-70
2023/03/22 12:44:25;;;;;;;0.40;0.40;;;11.10;99.90;;;;;;6189397;23;20017;-70
2023/03/22 12:47:11;;;;;;;0.50;0.50;;;11.10;99.90;;;;;;6216219;23;20008;-70
2023/03/22 12:49:58;;;;;;;0.30;0.30;;;11.10;99.90;;;;;;6215310;23;20075;-73
2023/03/22 12:52:48;;;;;;;0.50;0.50;;;11.00;99.90;;;;;;6214372;23;20012;-73
2023/03/22 12:55:24;;;;;;;0.40;0.40;;;11.10;99.90;;;;;;6215886;23;20016;-74
2023/03/22 12:57:53;;;;;;;0.40;0.40;;;11.00;99.90;;;;;;6214122;23;20020;-73
2023/03/22 13:00:34;;;;;;;0.40;0.40;;;11.00;99.90;;;;;;6214415;23;20093;-73
2023/03/22 13:03:07;;;;;;;0.40;0.40;;;11.00;99.90;;;;;;6214198;23;20104;-73
2023/03/22 13:05:35;;;;;;;0.40;0.40;;;11.00;99.90;;;;;;6214199;23;20009;-73